Time;durP1;ratioP1;P1;durP2;ratioP2;P2;SDS_P1;SDS_P2;PMS_P1;PMS_P2;Temp;Humidity;BMP_temperature;BMP_pressure;BME280_temperature;BME280_humidity;BME280_pressure;Samples;Min_cycle;Max_cycle;Signal;HPM_P1;HPM_P2
2021/04/16 00:02:01;;;;;;;5.30;4.43;;;3.80;80.60;;;;;;5098172;28;20434;-42
2021/04/16 00:04:28;;;;;;;6.10;4.50;;;3.60;79.30;;;;;;5099980;28;20180;-43
2021/04/16 00:06:53;;;;;;;4.50;4.10;;;3.50;78.80;;;;;;5099634;28;20575;-43
2021/04/16 00:09:19;;;;;;;6.10;4.07;;;3.30;79.10;;;;;;5099734;28;20585;-43
2021/04/16 00:11:45;;;;;;;6.10;4.57;;;3.00;79.50;;;;;;5100168;28;20176;-41
2021/04/16 00:14:12;;;;;;;4.93;4.33;;;2.90;80.00;;;;;;5100081;28;20261;-42
2021/04/16 00:16:38;;;;;;;4.63;4.23;;;2.70;80.50;;;;;;5099497;28;20452;-42
2021/04/16 00:19:04;;;;;;;6.03;4.80;;;2.60;81.70;;;;;;5099710;28;20442;-42
2021/04/16 00:21:30;;;;;;;6.00;4.70;;;2.50;81.20;;;;;;5100013;28;20482;-43
2021/04/16 00:23:56;;;;;;;10.57;5.23;;;2.40;81.60;;;;;;5099685;28;20204;-43
2021/04/16 00:26:22;;;;;;;5.33;4.83;;;2.30;82.20;;;;;;5099791;28;20453;-42
2021/04/16 00:28:48;;;;;;;7.10;4.03;;;2.20;82.50;;;;;;5099258;28;20212;-42
2021/04/16 00:31:24;;;;;;;4.93;4.33;;;2.20;82.70;;;;;;5099961;28;20411;-43
2021/04/16 00:33:50;;;;;;;7.27;4.60;;;2.10;82.90;;;;;;5099696;28;20241;-42
2021/04/16 00:36:16;;;;;;;5.03;4.53;;;2.10;82.90;;;;;;5099700;28;20414;-42
2021/04/16 00:38:42;;;;;;;6.33;4.60;;;2.10;83.00;;;;;;5099250;28;20442;-41
2021/04/16 00:41:12;;;;;;;5.97;4.20;;;2.00;83.20;;;;;;5099320;28;20444;-42
2021/04/16 00:43:38;;;;;;;5.30;4.43;;;2.00;83.40;;;;;;5099289;28;20438;-40
2021/04/16 00:46:40;;;;;;;5.67;4.40;;;2.00;84.10;;;;;;5098883;28;20422;-41
2021/04/16 00:49:07;;;;;;;5.87;4.43;;;2.00;83.70;;;;;;5040631;28;20239;-43
2021/04/16 00:51:43;;;;;;;5.43;4.30;;;1.90;83.80;;;;;;5072789;28;20500;-43
2021/04/16 00:54:22;;;;;;;5.63;4.70;;;1.80;84.10;;;;;;5088447;28;20434;-42
2021/04/16 00:56:50;;;;;;;6.20;4.50;;;1.80;84.30;;;;;;5087591;28;20856;-43
2021/04/16 00:59:17;;;;;;;4.83;3.97;;;1.80;84.50;;;;;;5080858;28;20503;-43
2021/04/16 01:01:42;;;;;;;5.70;4.90;;;1.80;84.60;;;;;;5098685;28;20450;-42
2021/04/16 01:04:09;;;;;;;5.20;3.97;;;1.70;84.70;;;;;;5098616;28;20442;-42
2021/04/16 01:06:35;;;;;;;5.40;4.50;;;1.70;84.80;;;;;;5098518;28;20241;-42
2021/04/16 01:09:01;;;;;;;4.97;4.17;;;1.60;85.00;;;;;;5098265;28;20470;-42
2021/04/16 01:11:28;;;;;;;6.60;4.80;;;1.60;85.20;;;;;;5098818;28;20840;-41
2021/04/16 01:13:54;;;;;;;6.47;4.27;;;1.60;85.50;;;;;;5064557;28;20522;-42
2021/04/16 01:16:22;;;;;;;4.40;4.00;;;1.50;85.80;;;;;;5081079;28;20431;-43
2021/04/16 01:18:50;;;;;;;4.63;3.90;;;1.50;85.80;;;;;;5081075;28;20542;-41
2021/04/16 01:21:19;;;;;;;6.50;4.37;;;1.50;86.00;;;;;;5080348;28;20840;-42
2021/04/16 01:24:10;;;;;;;5.67;4.17;;;1.50;86.90;;;;;;5080464;28;20442;-42
2021/04/16 01:26:39;;;;;;;7.70;4.60;;;1.40;86.40;;;;;;5098726;28;20724;-42
2021/04/16 01:29:05;;;;;;;8.03;4.70;;;1.40;86.80;;;;;;5080234;28;20911;-41
2021/04/16 01:31:32;;;;;;;9.00;4.70;;;1.30;86.90;;;;;;5098801;28;20450;-44
2021/04/16 01:33:58;;;;;;;5.67;4.60;;;1.30;87.20;;;;;;5097762;28;20577;-40
2021/04/16 01:36:31;;;;;;;6.03;4.40;;;1.20;87.40;;;;;;5079653;28;20892;-43
2021/04/16 01:38:58;;;;;;;5.67;4.50;;;1.20;87.50;;;;;;5080458;28;20450;-42
2021/04/16 01:41:26;;;;;;;7.60;4.70;;;1.20;87.60;;;;;;5081785;28;20423;-43
2021/04/16 01:44:04;;;;;;;4.23;3.83;;;1.30;87.80;;;;;;5098673;28;20504;-41
2021/04/16 01:46:47;;;;;;;6.20;4.77;;;1.30;87.30;;;;;;5097976;28;20509;-42
2021/04/16 01:49:12;;;;;;;4.80;4.30;;;1.30;87.30;;;;;;5098415;28;20461;-42
2021/04/16 01:51:38;;;;;;;7.10;4.40;;;1.30;87.10;;;;;;5098332;28;20521;-41
2021/04/16 01:54:14;;;;;;;5.10;4.60;;;1.30;87.40;;;;;;5097199;28;20654;-41
2021/04/16 01:56:41;;;;;;;5.00;4.50;;;1.30;87.70;;;;;;5098033;28;20176;-43
2021/04/16 01:59:08;;;;;;;5.67;4.97;;;1.30;87.80;;;;;;5098194;28;20696;-41
2021/04/16 02:01:34;;;;;;;6.00;4.97;;;1.20;87.80;;;;;;5097681;28;20422;-43
2021/04/16 02:04:00;;;;;;;4.53;4.13;;;1.20;88.00;;;;;;5097817;28;20686;-40
2021/04/16 02:06:26;;;;;;;5.80;4.30;;;1.20;88.00;;;;;;5098576;28;20468;-43
2021/04/16 02:08:54;;;;;;;5.10;4.60;;;1.20;88.00;;;;;;5098080;28;20620;-41
2021/04/16 02:11:20;;;;;;;5.63;4.97;;;1.20;88.40;;;;;;5079650;28;20712;-42
2021/04/16 02:13:46;;;;;;;5.27;4.77;;;1.10;88.40;;;;;;5098063;28;20427;-41
2021/04/16 02:16:12;;;;;;;4.47;4.00;;;1.10;88.50;;;;;;5098083;28;20415;-40
2021/04/16 02:18:38;;;;;;;4.80;4.40;;;1.10;88.80;;;;;;5097759;28;20242;-43
2021/04/16 02:21:04;;;;;;;4.80;4.30;;;1.00;88.70;;;;;;5097813;28;20848;-41
2021/04/16 02:23:29;;;;;;;5.77;4.60;;;1.00;89.00;;;;;;5097838;28;20176;-43
2021/04/16 02:25:55;;;;;;;4.87;4.37;;;0.90;89.30;;;;;;5097957;28;20176;-42
2021/04/16 02:28:21;;;;;;;5.77;5.17;;;0.90;89.50;;;;;;5098195;28;20474;-42
2021/04/16 02:30:47;;;;;;;6.33;4.20;;;0.90;89.40;;;;;;5097057;28;20434;-42
2021/04/16 02:33:13;;;;;;;4.63;4.23;;;0.90;89.50;;;;;;5098312;28;20642;-43
2021/04/16 02:35:39;;;;;;;7.73;4.80;;;0.90;89.50;;;;;;5097667;28;20179;-41
2021/04/16 02:38:05;;;;;;;4.77;4.30;;;0.90;89.80;;;;;;5097110;28;20434;-43
2021/04/16 02:40:31;;;;;;;4.80;4.40;;;0.90;89.70;;;;;;5100524;28;21079;-43
2021/04/16 02:42:57;;;;;;;7.83;4.20;;;0.80;89.80;;;;;;5102373;28;20528;-41
2021/04/16 02:45:25;;;;;;;4.80;4.30;;;0.80;89.90;;;;;;5101880;28;20422;-41
2021/04/16 02:47:51;;;;;;;6.57;4.97;;;0.80;89.90;;;;;;5101919;28;20204;-43
2021/04/16 02:50:25;;;;;;;5.70;4.60;;;0.80;89.80;;;;;;5102029;28;20457;-41
2021/04/16 02:52:51;;;;;;;5.57;4.17;;;0.80;89.70;;;;;;5101726;28;20708;-40
2021/04/16 02:55:17;;;;;;;5.20;4.70;;;0.80;89.90;;;;;;5101723;28;20422;-42
2021/04/16 02:57:43;;;;;;;7.30;4.70;;;0.80;90.10;;;;;;5101377;28;20180;-41
2021/04/16 03:00:12;;;;;;;5.83;5.20;;;0.70;90.10;;;;;;5101725;28;20780;-41
2021/04/16 03:02:38;;;;;;;5.83;5.13;;;0.60;90.20;;;;;;5083620;28;20180;-43
2021/04/16 03:05:06;;;;;;;6.30;4.60;;;0.60;90.30;;;;;;5101955;28;20651;-41
2021/04/16 03:07:31;;;;;;;5.20;4.70;;;0.60;90.60;;;;;;5101794;28;20191;-43
2021/04/16 03:09:57;;;;;;;5.40;4.30;;;0.50;90.50;;;;;;5100100;28;20466;-42
2021/04/16 03:12:23;;;;;;;10.03;5.37;;;0.50;90.70;;;;;;5089745;28;20207;-42
2021/04/16 03:14:49;;;;;;;10.63;5.27;;;0.40;90.80;;;;;;5080989;28;20180;-42
2021/04/16 03:17:15;;;;;;;5.30;4.80;;;0.40;90.90;;;;;;5072360;28;20317;-42
2021/04/16 03:19:41;;;;;;;8.30;5.00;;;0.30;91.00;;;;;;5100962;28;20524;-43
2021/04/16 03:22:06;;;;;;;6.00;4.83;;;0.30;91.20;;;;;;5101044;28;20203;-43
2021/04/16 03:24:32;;;;;;;5.90;4.70;;;0.20;91.30;;;;;;5101542;28;20525;-41
2021/04/16 03:26:58;;;;;;;5.57;4.73;;;0.20;91.50;;;;;;5101420;28;20207;-41
2021/04/16 03:29:24;;;;;;;6.97;4.83;;;0.20;91.50;;;;;;5100913;28;20895;-41
2021/04/16 03:31:50;;;;;;;8.40;5.47;;;0.20;91.50;;;;;;5100561;28;20177;-43
2021/04/16 03:34:16;;;;;;;5.73;5.23;;;0.10;91.60;;;;;;5100731;28;20172;-40
2021/04/16 03:36:42;;;;;;;6.23;5.63;;;0.10;91.70;;;;;;5100736;28;20263;-42
2021/04/16 03:39:08;;;;;;;6.50;5.00;;;0.10;91.70;;;;;;5100375;28;20901;-42
2021/04/16 03:41:33;;;;;;;5.30;4.80;;;0.20;91.80;;;;;;5082824;28;20195;-42
2021/04/16 03:43:59;;;;;;;5.57;4.80;;;0.10;91.60;;;;;;5101068;28;20434;-41
2021/04/16 03:46:25;;;;;;;5.50;5.00;;;0.20;91.70;;;;;;5100830;28;20170;-42
2021/04/16 03:48:51;;;;;;;6.20;5.60;;;0.20;91.60;;;;;;5100698;28;20486;-41
2021/04/16 03:51:17;;;;;;;7.60;5.67;;;0.20;91.50;;;;;;5100119;28;20450;-40
2021/04/16 03:53:43;;;;;;;6.60;5.00;;;0.20;91.50;;;;;;5099963;28;20563;-41
2021/04/16 03:56:11;;;;;;;5.83;4.97;;;0.20;91.60;;;;;;5082433;28;20483;-42
2021/04/16 03:58:37;;;;;;;6.30;5.40;;;0.20;91.60;;;;;;5082384;28;20724;-42
2021/04/16 04:01:05;;;;;;;4.83;4.20;;;0.20;91.50;;;;;;5082489;28;20418;-42
2021/04/16 04:03:31;;;;;;;5.53;4.97;;;0.20;91.50;;;;;;5100657;28;20836;-42
2021/04/16 04:05:57;;;;;;;6.97;6.20;;;0.20;91.60;;;;;;5100041;28;20856;-42
2021/04/16 04:08:22;;;;;;;5.50;4.83;;;0.10;91.90;;;;;;5081925;28;20470;-42
2021/04/16 04:10:48;;;;;;;7.90;5.30;;;0.10;91.50;;;;;;5100047;28;20212;-42
2021/04/16 04:13:14;;;;;;;8.23;5.60;;;0.20;91.50;;;;;;5099788;28;20185;-41
2021/04/16 04:15:41;;;;;;;7.00;5.53;;;0.10;91.50;;;;;;5099875;28;20639;-42
2021/04/16 04:18:07;;;;;;;6.53;5.90;;;0.10;91.60;;;;;;5100115;28;20542;-40
2021/04/16 04:20:35;;;;;;;7.10;6.03;;;0.10;91.80;;;;;;5100274;28;20833;-41
2021/04/16 04:23:02;;;;;;;9.30;6.03;;;0.10;91.80;;;;;;5099935;28;20492;-43
2021/04/16 04:25:30;;;;;;;7.00;6.00;;;0.00;91.70;;;;;;5099525;28;20431;-43
2021/04/16 04:27:57;;;;;;;9.70;5.63;;;0.00;91.70;;;;;;5099821;28;20450;-43
2021/04/16 04:30:29;;;;;;;7.10;5.60;;;0.00;91.70;;;;;;5099514;28;20821;-41
2021/04/16 04:32:56;;;;;;;7.60;6.40;;;0.00;91.80;;;;;;5099709;28;20466;-42
2021/04/16 04:35:22;;;;;;;8.20;6.10;;;0.00;91.90;;;;;;5099489;28;20441;-41
2021/04/16 04:37:48;;;;;;;7.27;5.70;;;-0.10;91.90;;;;;;5099297;28;20446;-40
2021/04/16 04:40:16;;;;;;;6.43;5.80;;;-0.10;92.00;;;;;;5099545;28;20721;-41
2021/04/16 04:42:43;;;;;;;6.73;5.47;;;-0.10;92.10;;;;;;5100124;28;20208;-40
2021/04/16 04:45:09;;;;;;;6.83;5.47;;;-0.20;92.00;;;;;;5081126;28;20444;-42
2021/04/16 04:47:35;;;;;;;6.73;6.03;;;-0.10;92.00;;;;;;5098281;28;20660;-42
2021/04/16 04:50:01;;;;;;;9.40;6.43;;;-0.10;92.00;;;;;;5098834;28;20462;-40
2021/04/16 04:52:30;;;;;;;10.23;6.70;;;-0.20;92.00;;;;;;5080085;28;20180;-42
2021/04/16 04:54:58;;;;;;;9.73;6.50;;;-0.20;92.00;;;;;;5098057;28;20185;-42
2021/04/16 04:57:25;;;;;;;8.50;6.57;;;-0.20;92.00;;;;;;5098216;28;20434;-42
2021/04/16 04:59:51;;;;;;;8.40;6.53;;;-0.10;92.00;;;;;;5096328;28;20434;-43
2021/04/16 05:02:19;;;;;;;9.37;7.00;;;-0.10;91.90;;;;;;5096734;28;20527;-41
2021/04/16 05:04:45;;;;;;;8.70;7.60;;;0.00;92.00;;;;;;5097317;28;20410;-41
2021/04/16 05:07:11;;;;;;;10.30;7.70;;;-0.10;92.00;;;;;;5095448;28;20533;-40
2021/04/16 05:09:37;;;;;;;9.60;7.37;;;0.00;92.10;;;;;;5096621;28;20556;-42
2021/04/16 05:12:04;;;;;;;8.77;7.87;;;0.00;92.30;;;;;;5079034;28;20177;-42
2021/04/16 05:14:30;;;;;;;9.30;7.43;;;0.00;92.30;;;;;;5098545;28;20497;-40
2021/04/16 05:16:56;;;;;;;8.17;7.40;;;0.10;92.30;;;;;;5096559;28;20486;-42
2021/04/16 05:19:22;;;;;;;8.47;7.10;;;0.20;92.20;;;;;;5096904;28;20431;-41
2021/04/16 05:21:50;;;;;;;8.90;7.47;;;0.20;92.20;;;;;;5095895;28;20493;-43
2021/04/16 05:24:17;;;;;;;8.20;7.13;;;0.30;92.10;;;;;;5079816;28;20829;-40
2021/04/16 05:26:43;;;;;;;8.03;7.23;;;0.40;92.10;;;;;;5098629;28;20422;-43
2021/04/16 05:29:09;;;;;;;9.10;7.90;;;0.40;92.00;;;;;;5098089;28;20493;-41
2021/04/16 05:31:35;;;;;;;8.80;7.90;;;0.50;91.90;;;;;;5097337;28;20427;-42
2021/04/16 05:34:02;;;;;;;8.73;7.83;;;0.60;91.80;;;;;;5095280;28;20352;-41
2021/04/16 05:36:28;;;;;;;14.57;8.87;;;0.70;91.70;;;;;;5096670;28;20821;-41
2021/04/16 05:38:54;;;;;;;9.30;7.43;;;0.80;91.60;;;;;;5078039;28;20434;-42
2021/04/16 05:41:20;;;;;;;21.27;10.30;;;0.90;91.50;;;;;;5094937;28;20180;-41
2021/04/16 05:43:46;;;;;;;29.63;11.77;;;0.90;91.40;;;;;;5094994;28;20186;-38
2021/04/16 05:46:12;;;;;;;21.63;10.43;;;1.10;91.30;;;;;;5095485;28;20501;-41
2021/04/16 05:48:38;;;;;;;26.80;11.50;;;1.20;91.20;;;;;;5095441;28;20829;-41
2021/04/16 05:51:04;;;;;;;23.00;11.43;;;1.30;91.00;;;;;;5094849;28;20455;-41
2021/04/16 05:53:30;;;;;;;12.63;8.07;;;1.40;90.90;;;;;;5095287;28;20822;-42
2021/04/16 05:55:56;;;;;;;18.43;8.53;;;1.60;90.90;;;;;;5094348;28;20421;-41
2021/04/16 05:58:22;;;;;;;12.20;9.23;;;1.70;90.70;;;;;;5095322;28;20455;-42
2021/04/16 06:00:48;;;;;;;8.37;7.10;;;1.80;90.50;;;;;;5093508;28;20449;-41
2021/04/16 06:03:17;;;;;;;8.63;7.83;;;2.00;90.40;;;;;;5095953;28;20430;-39
2021/04/16 06:05:43;;;;;;;8.27;6.33;;;2.20;90.20;;;;;;5078875;28;20187;-42
2021/04/16 06:08:09;;;;;;;6.07;5.40;;;2.40;90.10;;;;;;5079119;28;20437;-41
2021/04/16 06:10:35;;;;;;;8.17;6.80;;;2.50;90.10;;;;;;5095730;28;20188;-42
2021/04/16 06:13:04;;;;;;;7.40;6.70;;;2.60;90.10;;;;;;5094783;28;20437;-42
2021/04/16 06:15:30;;;;;;;6.33;5.60;;;2.70;90.10;;;;;;5095138;28;20414;-41
2021/04/16 06:17:57;;;;;;;6.57;5.83;;;2.70;90.10;;;;;;5094745;28;20580;-42
2021/04/16 06:20:24;;;;;;;7.30;6.60;;;2.80;90.80;;;;;;5059376;28;20701;-41
2021/04/16 06:22:52;;;;;;;6.70;6.10;;;3.10;90.70;;;;;;5095618;28;20716;-42
2021/04/16 06:25:24;;;;;;;8.27;6.60;;;3.10;90.50;;;;;;5096648;28;20475;-41
2021/04/16 06:27:50;;;;;;;7.50;6.53;;;3.00;91.40;;;;;;5098263;28;20452;-41
2021/04/16 06:30:18;;;;;;;6.63;5.97;;;3.30;91.40;;;;;;5079296;28;20843;-40
2021/04/16 06:32:45;;;;;;;9.27;6.83;;;3.50;91.20;;;;;;5097354;28;20465;-40
2021/04/16 06:35:14;;;;;;;7.40;6.60;;;3.70;90.50;;;;;;5096930;28;20426;-40
2021/04/16 06:37:40;;;;;;;7.40;6.70;;;3.70;90.40;;;;;;5097201;28;20457;-39
2021/04/16 06:40:07;;;;;;;7.17;6.47;;;3.80;90.10;;;;;;5096571;28;20422;-41
2021/04/16 06:42:34;;;;;;;7.13;6.30;;;3.60;90.40;;;;;;5096019;28;20546;-41
2021/04/16 06:45:09;;;;;;;7.40;6.70;;;3.90;90.40;;;;;;5096658;28;20812;-41
2021/04/16 06:47:59;;;;;;;7.30;6.30;;;4.10;90.20;;;;;;5096209;28;20471;-40
2021/04/16 06:50:29;;;;;;;7.70;6.00;;;4.30;89.70;;;;;;5053025;28;20736;-40
2021/04/16 06:53:20;;;;;;;7.87;6.43;;;4.50;88.60;;;;;;5096364;28;20423;-41
2021/04/16 06:56:07;;;;;;;6.30;5.60;;;4.80;87.30;;;;;;5096496;28;20661;-41
2021/04/16 06:58:57;;;;;;;9.10;6.17;;;5.00;86.40;;;;;;5078739;28;20517;-41
2021/04/16 07:01:25;;;;;;;6.23;5.63;;;5.40;85.30;;;;;;5050807;28;20414;-41
2021/04/16 07:04:17;;;;;;;7.87;6.73;;;5.50;83.20;;;;;;5096674;28;20426;-40
2021/04/16 07:06:43;;;;;;;7.00;6.40;;;5.70;83.50;;;;;;5079794;28;20509;-39
2021/04/16 07:09:11;;;;;;;8.30;6.47;;;5.90;82.50;;;;;;5097294;28;20557;-41
2021/04/16 07:11:47;;;;;;;6.93;6.17;;;6.10;81.30;;;;;;5078469;28;20426;-40
2021/04/16 07:14:31;;;;;;;6.83;6.13;;;6.30;80.40;;;;;;5079029;28;20402;-41
2021/04/16 07:16:57;;;;;;;6.30;5.77;;;6.50;79.20;;;;;;5078733;28;20895;-42
2021/04/16 07:19:26;;;;;;;6.40;5.80;;;6.70;77.80;;;;;;5079231;28;20505;-40
2021/04/16 07:22:16;;;;;;;7.17;6.47;;;6.90;77.10;;;;;;5079067;28;20765;-39
2021/04/16 07:24:43;;;;;;;7.53;5.97;;;6.90;77.00;;;;;;5084195;28;20431;-42
2021/04/16 07:27:22;;;;;;;7.13;6.43;;;7.20;76.10;;;;;;5080151;28;20434;-41
2021/04/16 07:29:52;;;;;;;6.97;6.27;;;7.70;76.60;;;;;;5081672;28;20540;-42
2021/04/16 07:32:31;;;;;;;6.20;5.70;;;8.00;73.70;;;;;;5098240;28;20459;-41
2021/04/16 07:35:17;;;;;;;6.40;5.70;;;8.30;72.60;;;;;;5098328;28;20414;-42
2021/04/16 07:37:47;;;;;;;5.97;5.47;;;8.00;73.30;;;;;;5100152;28;20534;-41
2021/04/16 07:40:35;;;;;;;5.73;5.13;;;8.30;73.40;;;;;;5081543;28;20749;-42
2021/04/16 07:43:02;;;;;;;7.13;6.43;;;8.50;71.50;;;;;;5081815;28;20441;-42
2021/04/16 07:45:41;;;;;;;6.70;6.00;;;8.80;69.50;;;;;;5082148;28;20422;-41
2021/04/16 07:48:48;;;;;;;7.53;6.50;;;8.90;69.00;;;;;;5099431;28;20441;-41
2021/04/16 07:51:14;;;;;;;6.43;5.83;;;9.20;68.50;;;;;;5094222;28;20418;-42
2021/04/16 07:53:43;;;;;;;6.50;5.73;;;9.40;66.70;;;;;;5062799;28;20443;-40
2021/04/16 07:56:15;;;;;;;6.97;6.03;;;9.50;68.30;;;;;;5098324;28;20414;-42
2021/04/16 07:59:13;;;;;;;6.40;5.80;;;10.10;65.20;;;;;;5098014;28;20434;-42
2021/04/16 08:01:41;;;;;;;6.27;5.67;;;10.60;63.20;;;;;;5077451;28;20425;-43
2021/04/16 08:04:34;;;;;;;5.97;5.57;;;10.90;60.70;;;;;;5097925;28;20476;-43
2021/04/16 08:07:16;;;;;;;7.20;6.60;;;11.40;58.50;;;;;;5093481;28;20441;-41
2021/04/16 08:09:42;;;;;;;6.77;6.13;;;11.80;55.80;;;;;;5098539;28;20460;-41
2021/04/16 08:12:08;;;;;;;6.33;5.83;;;11.60;54.60;;;;;;5079714;28;20517;-41
2021/04/16 08:14:38;;;;;;;7.97;7.10;;;11.00;54.20;;;;;;5097994;28;20399;-42
2021/04/16 08:17:15;;;;;;;9.33;8.43;;;10.30;55.40;;;;;;5080641;28;20462;-41
2021/04/16 08:19:42;;;;;;;7.20;6.57;;;9.80;57.90;;;;;;5098634;28;20525;-42
2021/04/16 08:22:14;;;;;;;6.10;5.50;;;9.90;58.50;;;;;;5098760;28;20453;-41
2021/04/16 08:24:52;;;;;;;10.07;7.10;;;10.40;57.50;;;;;;5097861;28;20495;-43
2021/04/16 08:27:20;;;;;;;7.00;6.40;;;10.40;55.70;;;;;;5093446;28;20438;-42
2021/04/16 08:29:56;;;;;;;6.70;6.20;;;10.20;56.20;;;;;;5096549;28;20519;-42
2021/04/16 08:32:33;;;;;;;6.97;6.37;;;9.90;56.90;;;;;;5086593;28;20526;-42
2021/04/16 08:35:10;;;;;;;7.00;6.30;;;9.50;57.80;;;;;;5066955;28;20422;-40
2021/04/16 08:37:45;;;;;;;6.73;5.73;;;9.50;58.20;;;;;;5080768;28;20499;-42
2021/04/16 08:40:15;;;;;;;6.47;5.87;;;9.20;58.10;;;;;;5079670;28;20713;-41
2021/04/16 08:42:42;;;;;;;6.83;6.23;;;8.90;58.70;;;;;;5079394;28;20789;-42
2021/04/16 08:45:12;;;;;;;7.17;5.77;;;8.50;59.20;;;;;;5096606;28;20421;-41
2021/04/16 08:47:56;;;;;;;6.77;6.00;;;8.10;60.90;;;;;;5094532;28;20822;-42
2021/04/16 08:50:31;;;;;;;7.37;6.63;;;7.70;61.40;;;;;;5079358;28;20411;-37
2021/04/16 08:53:00;;;;;;;7.80;7.10;;;7.30;62.90;;;;;;5096658;28;20449;-41
2021/04/16 08:55:32;;;;;;;6.50;5.90;;;7.10;66.20;;;;;;5096048;28;20517;-41
2021/04/16 08:58:12;;;;;;;6.23;5.70;;;7.20;68.20;;;;;;5095807;28;20426;-42
2021/04/16 09:00:46;;;;;;;6.33;5.67;;;7.40;68.80;;;;;;5096880;28;20487;-41
2021/04/16 09:03:27;;;;;;;6.73;6.03;;;7.80;68.40;;;;;;5079054;28;20433;-42
2021/04/16 09:05:59;;;;;;;5.27;4.87;;;8.00;67.50;;;;;;5097607;28;20403;-41
2021/04/16 09:08:26;;;;;;;6.37;5.77;;;8.30;66.50;;;;;;5080413;28;20889;-42
2021/04/16 09:10:57;;;;;;;5.83;5.33;;;8.40;66.00;;;;;;5079589;28;20462;-42
2021/04/16 09:13:38;;;;;;;6.57;5.63;;;8.50;64.80;;;;;;5079147;28;20529;-43
2021/04/16 09:16:16;;;;;;;6.93;6.33;;;8.80;65.00;;;;;;5097864;28;20496;-41
2021/04/16 09:18:54;;;;;;;6.40;5.80;;;9.10;64.20;;;;;;5078202;28;20639;-43
2021/04/16 09:21:31;;;;;;;5.83;5.30;;;9.50;63.90;;;;;;5058234;28;20430;-43
2021/04/16 09:24:02;;;;;;;5.47;5.00;;;9.80;60.90;;;;;;5073495;28;20438;-42
2021/04/16 09:26:43;;;;;;;5.80;5.30;;;9.80;60.30;;;;;;5076481;28;20496;-43
2021/04/16 09:29:26;;;;;;;5.60;4.90;;;9.90;59.80;;;;;;5058021;28;20510;-42
2021/04/16 09:31:56;;;;;;;4.83;4.43;;;10.50;59.20;;;;;;5063072;28;20419;-43
2021/04/16 09:34:27;;;;;;;5.33;4.57;;;11.10;57.90;;;;;;5076664;28;20526;-43
2021/04/16 09:37:21;;;;;;;5.30;4.67;;;12.30;55.10;;;;;;5061421;28;20494;-42
2021/04/16 09:40:19;;;;;;;5.07;4.60;;;13.10;50.40;;;;;;5067431;28;20463;-43
2021/04/16 09:42:49;;;;;;;7.80;4.67;;;13.80;50.30;;;;;;5072224;28;20435;-43
2021/04/16 09:45:30;;;;;;;4.60;4.20;;;14.20;46.70;;;;;;5074608;28;20492;-43
2021/04/16 09:48:22;;;;;;;5.93;5.43;;;15.10;45.90;;;;;;5075365;28;20571;-42
2021/04/16 09:50:58;;;;;;;4.13;3.73;;;15.10;43.70;;;;;;5065025;28;20513;-42
2021/04/16 09:53:27;;;;;;;4.60;3.10;;;15.30;53.00;;;;;;5077435;28;20432;-40
2021/04/16 09:56:04;;;;;;;3.50;3.20;;;15.70;51.60;;;;;;5077656;28;20435;-43
2021/04/16 09:58:33;;;;;;;4.30;3.90;;;16.80;49.40;;;;;;5076465;28;20506;-44
2021/04/16 10:01:11;;;;;;;4.53;4.00;;;17.10;42.80;;;;;;5062537;28;20435;-42
2021/04/16 10:03:41;;;;;;;3.80;3.50;;;17.90;40.60;;;;;;5077920;28;20505;-41
2021/04/16 10:06:27;;;;;;;3.20;2.90;;;18.00;37.60;;;;;;5058415;28;20597;-44
2021/04/16 10:09:17;;;;;;;4.53;4.13;;;18.00;41.10;;;;;;5076820;28;20486;-41
2021/04/16 10:11:58;;;;;;;4.83;4.30;;;17.10;39.20;;;;;;5073373;28;20488;-42
2021/04/16 10:14:24;;;;;;;4.70;4.30;;;16.20;38.40;;;;;;5076803;28;20423;-41
2021/04/16 10:16:55;;;;;;;5.00;4.60;;;15.60;37.80;;;;;;5077730;28;20439;-42
2021/04/16 10:19:26;;;;;;;3.60;3.30;;;15.10;38.60;;;;;;5096383;28;20532;-43
2021/04/16 10:21:53;;;;;;;4.37;4.00;;;14.90;39.50;;;;;;5077677;28;20694;-43
2021/04/16 10:47:07;;;;;;;4.70;3.77;;;13.60;39.50;;;;;;5094910;28;20414;-41
2021/04/16 11:33:20;;;;;;;6.33;5.73;;;8.70;49.40;;;;;;5099226;28;20560;-40
2021/04/16 12:40:23;;;;;;;6.00;5.10;;;8.70;53.60;;;;;;5097288;28;20462;-41
2021/04/16 12:42:49;;;;;;;6.10;5.30;;;8.70;53.70;;;;;;5098534;28;20442;-41
2021/04/16 12:45:16;;;;;;;5.30;4.83;;;8.30;53.90;;;;;;5079580;28;20708;-42
2021/04/16 12:47:42;;;;;;;6.20;4.90;;;8.40;54.00;;;;;;5080081;28;20421;-43
2021/04/16 12:50:10;;;;;;;4.93;4.53;;;8.40;53.90;;;;;;5097849;28;20473;-40
2021/04/16 12:52:35;;;;;;;5.30;4.90;;;8.30;53.80;;;;;;5097174;28;20784;-43
2021/04/16 12:55:01;;;;;;;5.67;5.17;;;8.20;54.70;;;;;;5097977;28;20439;-43
2021/04/16 12:57:50;;;;;;;5.23;4.83;;;8.10;54.30;;;;;;5096414;28;20475;-41
2021/04/16 13:00:20;;;;;;;6.83;5.00;;;8.00;55.00;;;;;;5080600;28;20434;-42
2021/04/16 13:02:47;;;;;;;5.20;4.80;;;8.10;55.10;;;;;;5096498;28;20509;-42
2021/04/16 13:05:17;;;;;;;6.17;5.57;;;8.30;55.50;;;;;;5079250;28;20728;-42
2021/04/16 13:07:43;;;;;;;6.27;5.67;;;8.30;55.30;;;;;;5096436;28;20759;-41
2021/04/16 13:10:17;;;;;;;6.27;5.67;;;8.40;55.80;;;;;;5078487;28;20528;-42
2021/04/16 13:12:44;;;;;;;7.67;5.90;;;8.70;55.00;;;;;;5096010;28;20254;-41
2021/04/16 13:15:10;;;;;;;5.43;5.03;;;8.40;55.00;;;;;;5096256;28;20511;-41
2021/04/16 13:17:40;;;;;;;5.57;5.07;;;8.50;55.00;;;;;;5094426;28;20798;-43
2021/04/16 13:20:06;;;;;;;5.80;5.30;;;8.60;55.40;;;;;;5077651;28;20446;-42
2021/04/16 13:22:32;;;;;;;5.07;4.60;;;8.60;55.20;;;;;;5095730;28;20851;-43
2021/04/16 13:24:58;;;;;;;6.07;4.97;;;8.60;55.10;;;;;;5094453;28;20440;-47
2021/04/16 13:27:28;;;;;;;3.87;3.57;;;8.70;54.50;;;;;;5095664;28;20180;-36
2021/04/16 13:29:54;;;;;;;5.90;5.30;;;9.20;82.50;;;;;;5097428;28;20219;-34
2021/04/16 13:32:25;;;;;;;5.43;4.93;;;9.30;57.60;;;;;;5097582;28;20422;-33
2021/04/16 13:34:53;;;;;;;5.30;4.90;;;9.40;56.00;;;;;;5098074;28;20816;-35
2021/04/16 13:37:20;;;;;;;7.10;5.70;;;9.30;55.20;;;;;;5096332;28;20446;-34
2021/04/16 13:39:47;;;;;;;6.73;6.13;;;8.90;55.40;;;;;;5079982;28;20695;-35
2021/04/16 13:42:14;;;;;;;5.70;5.20;;;8.90;56.60;;;;;;5080349;28;20478;-34
2021/04/16 13:44:40;;;;;;;6.03;5.43;;;8.90;56.10;;;;;;5111185;28;20429;-34
2021/04/16 13:47:07;;;;;;;5.67;5.17;;;9.10;56.10;;;;;;5085040;28;20426;-35
2021/04/16 13:49:36;;;;;;;5.10;4.70;;;9.30;55.80;;;;;;5079488;28;20462;-34
2021/04/16 13:52:02;;;;;;;5.87;5.37;;;9.40;56.00;;;;;;5080006;28;20431;-34
2021/04/16 13:54:28;;;;;;;5.90;5.40;;;9.50;55.40;;;;;;5098170;28;20422;-35
2021/04/16 13:56:54;;;;;;;5.93;5.20;;;9.50;55.40;;;;;;5079816;28;20464;-33
2021/04/16 13:59:20;;;;;;;6.33;5.73;;;9.60;54.90;;;;;;5099066;28;20754;-34
2021/04/16 14:01:46;;;;;;;6.13;5.63;;;9.40;55.00;;;;;;5097979;28;20195;-34
2021/04/16 14:04:27;;;;;;;5.77;5.27;;;9.20;55.50;;;;;;5080416;28;20501;-35
2021/04/16 14:06:57;;;;;;;5.20;4.80;;;8.90;56.10;;;;;;5097771;28;20585;-35
2021/04/16 14:09:25;;;;;;;6.20;5.70;;;8.90;55.90;;;;;;5079675;28;20496;-34
2021/04/16 14:11:52;;;;;;;5.40;4.90;;;8.60;56.30;;;;;;5097942;28;20426;-35
2021/04/16 14:14:25;;;;;;;6.33;5.83;;;8.70;56.90;;;;;;5097970;28;20518;-35
2021/04/16 14:16:54;;;;;;;5.67;5.27;;;8.70;56.10;;;;;;5078909;28;20430;-35
2021/04/16 14:19:26;;;;;;;6.33;5.70;;;8.50;56.60;;;;;;5096910;28;20445;-35
2021/04/16 14:21:56;;;;;;;6.60;6.00;;;8.40;56.80;;;;;;5079080;28;20503;-35
2021/04/16 14:24:22;;;;;;;6.70;6.20;;;8.40;56.80;;;;;;5080416;28;20430;-34
2021/04/16 14:26:50;;;;;;;5.87;5.37;;;8.40;56.30;;;;;;5104154;28;20472;-35
2021/04/16 14:29:15;;;;;;;5.87;5.37;;;8.30;57.00;;;;;;5094223;28;20505;-34
2021/04/16 14:31:43;;;;;;;5.27;4.60;;;8.30;57.60;;;;;;5093474;28;20474;-35
2021/04/16 14:34:13;;;;;;;5.43;5.03;;;8.40;57.20;;;;;;5099600;28;20164;-34
2021/04/16 14:36:39;;;;;;;5.33;4.93;;;8.50;56.90;;;;;;5085050;28;20843;-35
2021/04/16 14:39:06;;;;;;;6.53;5.77;;;8.70;56.80;;;;;;5103103;28;20410;-34
2021/04/16 14:41:34;;;;;;;5.47;4.80;;;8.80;57.20;;;;;;5098724;28;20211;-35
2021/04/16 14:44:00;;;;;;;5.30;4.90;;;8.90;57.10;;;;;;5086100;28;20446;-35
2021/04/16 14:46:26;;;;;;;5.60;5.20;;;8.90;56.90;;;;;;5104362;28;20465;-35
2021/04/16 14:48:53;;;;;;;9.73;5.57;;;8.90;56.40;;;;;;5104754;28;20514;-35
2021/04/16 14:51:19;;;;;;;6.07;5.47;;;8.90;56.60;;;;;;5104885;28;20236;-35
2021/04/16 14:53:48;;;;;;;6.47;4.80;;;8.60;56.30;;;;;;5086004;28;20457;-35
2021/04/16 14:56:16;;;;;;;5.00;4.60;;;8.50;56.90;;;;;;5085707;28;20430;-36
2021/04/16 14:58:45;;;;;;;5.93;5.43;;;8.50;57.10;;;;;;5105462;28;20476;-40
2021/04/16 15:01:12;;;;;;;5.40;4.90;;;8.50;57.30;;;;;;5085459;28;20441;-40
2021/04/16 15:03:38;;;;;;;4.23;3.93;;;8.20;57.20;;;;;;5104168;28;20806;-42
2021/04/16 15:06:07;;;;;;;5.07;4.67;;;8.10;57.10;;;;;;5104099;28;20804;-42
2021/04/16 15:08:43;;;;;;;4.47;4.03;;;8.10;57.20;;;;;;5095909;28;20498;-40
2021/04/16 15:11:11;;;;;;;5.73;4.57;;;8.00;57.10;;;;;;5074077;28;20438;-40
2021/04/16 15:13:38;;;;;;;5.33;4.83;;;7.90;57.30;;;;;;5086522;28;20410;-42
2021/04/16 15:16:06;;;;;;;5.50;3.90;;;7.80;57.10;;;;;;5086167;28;20811;-43
2021/04/16 15:18:35;;;;;;;5.37;4.87;;;7.80;57.70;;;;;;5102643;28;20534;-43
2021/04/16 15:21:03;;;;;;;5.00;4.60;;;7.80;57.80;;;;;;5101684;28;20485;-43